sensor_id;sensor_type;location;lat;lon;timestamp;P1;durP1;ratioP1;P2;durP2;ratioP2
31770;SDS011;18343;50.152;8.182;2022-08-25T00:00:47;3.70;;;2.13;;
31770;SDS011;18343;50.152;8.182;2022-08-25T00:03:35;4.00;;;2.20;;
31770;SDS011;18343;50.152;8.182;2022-08-25T00:06:21;4.72;;;2.25;;
31770;SDS011;18343;50.152;8.182;2022-08-25T00:09:08;8.00;;;2.42;;
31770;SDS011;18343;50.152;8.182;2022-08-25T00:11:55;3.78;;;2.20;;
31770;SDS011;18343;50.152;8.182;2022-08-25T00:14:41;3.67;;;2.67;;
31770;SDS011;18343;50.152;8.182;2022-08-25T00:17:26;2.92;;;2.30;;
31770;SDS011;18343;50.152;8.182;2022-08-25T00:20:12;5.63;;;2.75;;
31770;SDS011;18343;50.152;8.182;2022-08-25T00:22:57;4.88;;;2.15;;
31770;SDS011;18343;50.152;8.182;2022-08-25T00:25:43;7.40;;;2.70;;
31770;SDS011;18343;50.152;8.182;2022-08-25T00:28:29;4.45;;;2.60;;
31770;SDS011;18343;50.152;8.182;2022-08-25T00:31:15;6.30;;;2.25;;
31770;SDS011;18343;50.152;8.182;2022-08-25T00:34:03;2.97;;;2.58;;
31770;SDS011;18343;50.152;8.182;2022-08-25T00:36:52;5.55;;;2.25;;
31770;SDS011;18343;50.152;8.182;2022-08-25T00:39:38;6.22;;;2.58;;
31770;SDS011;18343;50.152;8.182;2022-08-25T00:42:26;5.18;;;2.90;;
31770;SDS011;18343;50.152;8.182;2022-08-25T00:45:12;3.28;;;2.45;;
31770;SDS011;18343;50.152;8.182;2022-08-25T00:47:57;3.72;;;2.47;;
31770;SDS011;18343;50.152;8.182;2022-08-25T00:50:44;5.32;;;2.88;;
31770;SDS011;18343;50.152;8.182;2022-08-25T00:53:29;3.03;;;2.40;;
31770;SDS011;18343;50.152;8.182;2022-08-25T00:56:15;4.10;;;2.80;;
31770;SDS011;18343;50.152;8.182;2022-08-25T00:59:02;4.38;;;2.38;;
31770;SDS011;18343;50.152;8.182;2022-08-25T01:01:48;4.28;;;2.55;;
31770;SDS011;18343;50.152;8.182;2022-08-25T01:04:35;8.40;;;3.38;;
31770;SDS011;18343;50.152;8.182;2022-08-25T01:07:20;6.03;;;2.30;;
31770;SDS011;18343;50.152;8.182;2022-08-25T01:10:07;8.30;;;2.70;;
31770;SDS011;18343;50.152;8.182;2022-08-25T01:12:59;3.03;;;2.28;;
31770;SDS011;18343;50.152;8.182;2022-08-25T01:15:52;3.55;;;2.50;;
31770;SDS011;18343;50.152;8.182;2022-08-25T01:18:43;6.78;;;2.50;;
31770;SDS011;18343;50.152;8.182;2022-08-25T01:21:37;5.20;;;2.47;;
31770;SDS011;18343;50.152;8.182;2022-08-25T01:24:27;3.55;;;2.20;;
31770;SDS011;18343;50.152;8.182;2022-08-25T01:27:21;3.97;;;2.85;;
31770;SDS011;18343;50.152;8.182;2022-08-25T01:30:08;3.78;;;2.50;;
31770;SDS011;18343;50.152;8.182;2022-08-25T01:32:54;6.78;;;2.55;;
31770;SDS011;18343;50.152;8.182;2022-08-25T01:35:39;4.25;;;2.50;;
31770;SDS011;18343;50.152;8.182;2022-08-25T01:38:27;6.18;;;2.70;;
31770;SDS011;18343;50.152;8.182;2022-08-25T01:41:14;7.85;;;3.17;;
31770;SDS011;18343;50.152;8.182;2022-08-25T01:44:04;5.05;;;2.65;;
31770;SDS011;18343;50.152;8.182;2022-08-25T01:46:50;5.13;;;2.60;;
31770;SDS011;18343;50.152;8.182;2022-08-25T01:49:37;2.63;;;2.42;;
31770;SDS011;18343;50.152;8.182;2022-08-25T01:52:28;5.80;;;2.65;;
31770;SDS011;18343;50.152;8.182;2022-08-25T01:55:20;3.65;;;2.42;;
31770;SDS011;18343;50.152;8.182;2022-08-25T01:58:05;7.35;;;2.80;;
31770;SDS011;18343;50.152;8.182;2022-08-25T02:00:51;6.05;;;2.60;;
31770;SDS011;18343;50.152;8.182;2022-08-25T02:03:40;5.75;;;2.78;;
31770;SDS011;18343;50.152;8.182;2022-08-25T02:06:29;4.28;;;2.35;;
31770;SDS011;18343;50.152;8.182;2022-08-25T02:09:16;4.25;;;2.75;;
31770;SDS011;18343;50.152;8.182;2022-08-25T02:12:04;4.43;;;2.58;;
31770;SDS011;18343;50.152;8.182;2022-08-25T02:14:52;8.82;;;3.13;;
31770;SDS011;18343;50.152;8.182;2022-08-25T02:17:37;4.25;;;3.05;;
31770;SDS011;18343;50.152;8.182;2022-08-25T02:20:22;5.97;;;3.08;;
31770;SDS011;18343;50.152;8.182;2022-08-25T02:23:09;4.10;;;3.00;;
31770;SDS011;18343;50.152;8.182;2022-08-25T02:25:55;4.45;;;3.20;;
31770;SDS011;18343;50.152;8.182;2022-08-25T02:28:41;3.17;;;2.78;;
31770;SDS011;18343;50.152;8.182;2022-08-25T02:31:27;5.85;;;2.80;;
31770;SDS011;18343;50.152;8.182;2022-08-25T02:34:13;4.38;;;2.90;;
31770;SDS011;18343;50.152;8.182;2022-08-25T02:36:58;7.82;;;3.10;;
31770;SDS011;18343;50.152;8.182;2022-08-25T02:39:43;5.40;;;2.72;;
31770;SDS011;18343;50.152;8.182;2022-08-25T02:42:29;4.10;;;3.00;;
31770;SDS011;18343;50.152;8.182;2022-08-25T02:45:15;4.35;;;2.83;;
31770;SDS011;18343;50.152;8.182;2022-08-25T02:48:01;4.80;;;2.72;;
31770;SDS011;18343;50.152;8.182;2022-08-25T02:50:47;5.07;;;2.78;;
31770;SDS011;18343;50.152;8.182;2022-08-25T02:53:35;3.58;;;2.70;;
31770;SDS011;18343;50.152;8.182;2022-08-25T02:56:22;6.50;;;2.83;;
31770;SDS011;18343;50.152;8.182;2022-08-25T02:59:08;5.05;;;2.90;;
31770;SDS011;18343;50.152;8.182;2022-08-25T03:01:54;3.38;;;2.75;;
31770;SDS011;18343;50.152;8.182;2022-08-25T03:04:40;5.68;;;2.90;;
31770;SDS011;18343;50.152;8.182;2022-08-25T03:07:25;6.13;;;2.63;;
31770;SDS011;18343;50.152;8.182;2022-08-25T03:10:12;4.05;;;3.00;;
31770;SDS011;18343;50.152;8.182;2022-08-25T03:13:01;4.50;;;3.22;;
31770;SDS011;18343;50.152;8.182;2022-08-25T03:15:47;9.48;;;2.80;;
31770;SDS011;18343;50.152;8.182;2022-08-25T03:18:34;8.70;;;3.42;;
31770;SDS011;18343;50.152;8.182;2022-08-25T03:21:21;10.45;;;3.47;;
31770;SDS011;18343;50.152;8.182;2022-08-25T03:24:06;5.57;;;3.22;;
31770;SDS011;18343;50.152;8.182;2022-08-25T03:26:52;5.65;;;3.40;;
31770;SDS011;18343;50.152;8.182;2022-08-25T03:29:38;3.40;;;2.80;;
31770;SDS011;18343;50.152;8.182;2022-08-25T03:32:25;5.68;;;3.10;;
31770;SDS011;18343;50.152;8.182;2022-08-25T03:35:11;3.60;;;2.83;;
31770;SDS011;18343;50.152;8.182;2022-08-25T03:37:57;5.38;;;3.45;;
31770;SDS011;18343;50.152;8.182;2022-08-25T03:40:43;5.68;;;3.17;;
31770;SDS011;18343;50.152;8.182;2022-08-25T03:43:28;3.25;;;2.65;;
31770;SDS011;18343;50.152;8.182;2022-08-25T03:46:18;6.50;;;2.97;;
31770;SDS011;18343;50.152;8.182;2022-08-25T03:49:06;5.53;;;3.33;;
31770;SDS011;18343;50.152;8.182;2022-08-25T03:51:55;3.20;;;2.80;;
31770;SDS011;18343;50.152;8.182;2022-08-25T03:54:42;6.53;;;2.72;;
31770;SDS011;18343;50.152;8.182;2022-08-25T03:57:29;6.93;;;3.22;;
31770;SDS011;18343;50.152;8.182;2022-08-25T04:00:14;4.97;;;3.10;;
31770;SDS011;18343;50.152;8.182;2022-08-25T04:03:00;8.75;;;3.13;;
31770;SDS011;18343;50.152;8.182;2022-08-25T04:05:45;10.43;;;4.57;;
31770;SDS011;18343;50.152;8.182;2022-08-25T04:08:33;8.85;;;4.38;;
31770;SDS011;18343;50.152;8.182;2022-08-25T04:11:21;6.10;;;3.65;;
31770;SDS011;18343;50.152;8.182;2022-08-25T04:14:08;4.07;;;3.20;;
31770;SDS011;18343;50.152;8.182;2022-08-25T04:16:53;5.43;;;3.85;;
31770;SDS011;18343;50.152;8.182;2022-08-25T04:19:39;8.38;;;4.50;;
31770;SDS011;18343;50.152;8.182;2022-08-25T04:22:24;13.30;;;4.10;;
31770;SDS011;18343;50.152;8.182;2022-08-25T04:25:10;9.88;;;3.78;;
31770;SDS011;18343;50.152;8.182;2022-08-25T04:27:57;8.02;;;3.90;;
31770;SDS011;18343;50.152;8.182;2022-08-25T04:30:43;5.97;;;4.00;;
31770;SDS011;18343;50.152;8.182;2022-08-25T04:33:28;5.25;;;4.20;;
31770;SDS011;18343;50.152;8.182;2022-08-25T04:36:14;4.85;;;3.92;;
31770;SDS011;18343;50.152;8.182;2022-08-25T04:39:02;7.28;;;3.95;;
31770;SDS011;18343;50.152;8.182;2022-08-25T04:41:49;7.60;;;4.40;;
31770;SDS011;18343;50.152;8.182;2022-08-25T04:44:34;4.88;;;4.03;;
31770;SDS011;18343;50.152;8.182;2022-08-25T04:47:19;4.60;;;4.13;;
31770;SDS011;18343;50.152;8.182;2022-08-25T04:50:05;5.55;;;4.00;;
31770;SDS011;18343;50.152;8.182;2022-08-25T04:52:51;6.30;;;4.10;;
31770;SDS011;18343;50.152;8.182;2022-08-25T04:55:40;5.85;;;4.30;;
31770;SDS011;18343;50.152;8.182;2022-08-25T04:58:28;6.38;;;3.97;;
31770;SDS011;18343;50.152;8.182;2022-08-25T05:01:14;7.28;;;4.43;;
31770;SDS011;18343;50.152;8.182;2022-08-25T05:04:03;5.65;;;3.90;;
31770;SDS011;18343;50.152;8.182;2022-08-25T05:06:51;5.68;;;4.22;;
31770;SDS011;18343;50.152;8.182;2022-08-25T05:09:36;7.28;;;4.65;;
31770;SDS011;18343;50.152;8.182;2022-08-25T05:12:21;5.18;;;4.25;;
31770;SDS011;18343;50.152;8.182;2022-08-25T05:15:09;4.78;;;4.13;;
31770;SDS011;18343;50.152;8.182;2022-08-25T05:18:14;9.18;;;4.82;;
31770;SDS011;18343;50.152;8.182;2022-08-25T05:21:01;7.00;;;4.68;;
31770;SDS011;18343;50.152;8.182;2022-08-25T05:23:48;8.02;;;4.43;;
31770;SDS011;18343;50.152;8.182;2022-08-25T05:26:39;11.85;;;5.35;;
31770;SDS011;18343;50.152;8.182;2022-08-25T05:29:25;9.10;;;5.15;;
31770;SDS011;18343;50.152;8.182;2022-08-25T05:32:11;13.55;;;5.85;;
31770;SDS011;18343;50.152;8.182;2022-08-25T05:34:57;9.07;;;5.32;;
31770;SDS011;18343;50.152;8.182;2022-08-25T05:37:42;9.70;;;5.65;;
31770;SDS011;18343;50.152;8.182;2022-08-25T05:40:28;7.88;;;5.57;;
31770;SDS011;18343;50.152;8.182;2022-08-25T05:43:13;7.03;;;4.90;;
31770;SDS011;18343;50.152;8.182;2022-08-25T05:45:58;9.73;;;6.25;;
31770;SDS011;18343;50.152;8.182;2022-08-25T05:48:45;6.30;;;5.35;;
31770;SDS011;18343;50.152;8.182;2022-08-25T05:51:31;8.98;;;4.82;;
31770;SDS011;18343;50.152;8.182;2022-08-25T05:54:17;10.23;;;6.07;;
31770;SDS011;18343;50.152;8.182;2022-08-25T05:57:04;9.75;;;5.55;;
31770;SDS011;18343;50.152;8.182;2022-08-25T05:59:49;10.00;;;5.40;;
31770;SDS011;18343;50.152;8.182;2022-08-25T06:02:36;7.63;;;5.57;;
31770;SDS011;18343;50.152;8.182;2022-08-25T06:05:27;7.15;;;6.10;;
31770;SDS011;18343;50.152;8.182;2022-08-25T06:08:13;11.68;;;6.30;;
31770;SDS011;18343;50.152;8.182;2022-08-25T06:10:59;10.90;;;6.18;;
31770;SDS011;18343;50.152;8.182;2022-08-25T06:13:44;10.25;;;5.63;;
31770;SDS011;18343;50.152;8.182;2022-08-25T06:16:32;9.07;;;6.22;;
31770;SDS011;18343;50.152;8.182;2022-08-25T06:19:17;7.85;;;5.40;;
31770;SDS011;18343;50.152;8.182;2022-08-25T06:22:06;9.35;;;6.03;;
31770;SDS011;18343;50.152;8.182;2022-08-25T06:24:53;9.13;;;5.97;;
31770;SDS011;18343;50.152;8.182;2022-08-25T06:27:38;7.85;;;5.88;;
31770;SDS011;18343;50.152;8.182;2022-08-25T06:30:24;9.77;;;6.55;;
31770;SDS011;18343;50.152;8.182;2022-08-25T06:33:10;11.65;;;5.97;;
31770;SDS011;18343;50.152;8.182;2022-08-25T06:35:58;7.75;;;6.05;;
31770;SDS011;18343;50.152;8.182;2022-08-25T06:38:46;10.35;;;6.88;;
31770;SDS011;18343;50.152;8.182;2022-08-25T06:41:31;13.55;;;6.85;;
31770;SDS011;18343;50.152;8.182;2022-08-25T06:44:18;12.45;;;6.32;;
31770;SDS011;18343;50.152;8.182;2022-08-25T06:47:05;8.07;;;5.97;;
31770;SDS011;18343;50.152;8.182;2022-08-25T06:49:51;12.23;;;6.90;;
31770;SDS011;18343;50.152;8.182;2022-08-25T06:52:36;10.07;;;6.50;;
31770;SDS011;18343;50.152;8.182;2022-08-25T06:55:22;9.50;;;6.85;;
31770;SDS011;18343;50.152;8.182;2022-08-25T06:58:07;11.27;;;6.72;;
31770;SDS011;18343;50.152;8.182;2022-08-25T07:00:53;16.20;;;7.97;;
31770;SDS011;18343;50.152;8.182;2022-08-25T07:03:39;8.93;;;6.80;;
31770;SDS011;18343;50.152;8.182;2022-08-25T07:06:26;9.65;;;6.63;;
31770;SDS011;18343;50.152;8.182;2022-08-25T07:09:14;10.10;;;6.88;;
31770;SDS011;18343;50.152;8.182;2022-08-25T07:12:01;10.55;;;6.38;;
31770;SDS011;18343;50.152;8.182;2022-08-25T07:14:48;10.82;;;6.35;;
31770;SDS011;18343;50.152;8.182;2022-08-25T07:17:33;7.35;;;6.18;;
31770;SDS011;18343;50.152;8.182;2022-08-25T07:20:18;9.27;;;6.22;;
31770;SDS011;18343;50.152;8.182;2022-08-25T07:23:04;9.93;;;6.00;;
31770;SDS011;18343;50.152;8.182;2022-08-25T07:25:50;9.13;;;6.90;;
31770;SDS011;18343;50.152;8.182;2022-08-25T07:28:37;8.32;;;5.80;;
31770;SDS011;18343;50.152;8.182;2022-08-25T07:31:24;7.47;;;6.63;;
31770;SDS011;18343;50.152;8.182;2022-08-25T07:34:09;11.27;;;6.53;;
31770;SDS011;18343;50.152;8.182;2022-08-25T07:37:13;9.40;;;6.13;;
31770;SDS011;18343;50.152;8.182;2022-08-25T07:40:00;9.32;;;6.13;;
31770;SDS011;18343;50.152;8.182;2022-08-25T07:42:47;7.88;;;6.70;;
31770;SDS011;18343;50.152;8.182;2022-08-25T07:45:37;9.38;;;6.70;;
31770;SDS011;18343;50.152;8.182;2022-08-25T07:48:23;7.55;;;6.80;;
31770;SDS011;18343;50.152;8.182;2022-08-25T07:51:09;8.13;;;6.45;;
31770;SDS011;18343;50.152;8.182;2022-08-25T07:53:56;8.18;;;6.70;;
31770;SDS011;18343;50.152;8.182;2022-08-25T07:56:41;10.18;;;7.28;;
31770;SDS011;18343;50.152;8.182;2022-08-25T07:59:27;8.48;;;7.05;;
31770;SDS011;18343;50.152;8.182;2022-08-25T08:02:13;8.43;;;7.50;;
31770;SDS011;18343;50.152;8.182;2022-08-25T08:04:58;11.25;;;7.65;;
31770;SDS011;18343;50.152;8.182;2022-08-25T08:07:45;11.48;;;7.75;;
31770;SDS011;18343;50.152;8.182;2022-08-25T08:10:30;7.43;;;6.50;;
31770;SDS011;18343;50.152;8.182;2022-08-25T08:13:16;10.85;;;7.78;;
31770;SDS011;18343;50.152;8.182;2022-08-25T08:16:02;9.43;;;7.22;;
31770;SDS011;18343;50.152;8.182;2022-08-25T08:18:54;10.13;;;6.72;;
31770;SDS011;18343;50.152;8.182;2022-08-25T08:21:39;10.32;;;7.15;;
31770;SDS011;18343;50.152;8.182;2022-08-25T08:24:25;8.75;;;7.35;;
31770;SDS011;18343;50.152;8.182;2022-08-25T08:27:13;10.80;;;7.18;;
31770;SDS011;18343;50.152;8.182;2022-08-25T08:29:58;12.35;;;7.10;;
31770;SDS011;18343;50.152;8.182;2022-08-25T08:32:44;13.48;;;6.82;;
31770;SDS011;18343;50.152;8.182;2022-08-25T08:35:33;19.52;;;8.00;;
31770;SDS011;18343;50.152;8.182;2022-08-25T08:38:18;14.43;;;7.50;;
31770;SDS011;18343;50.152;8.182;2022-08-25T08:41:07;11.40;;;7.22;;
31770;SDS011;18343;50.152;8.182;2022-08-25T08:44:25;9.10;;;6.90;;
31770;SDS011;18343;50.152;8.182;2022-08-25T08:47:20;10.40;;;7.13;;
31770;SDS011;18343;50.152;8.182;2022-08-25T08:50:22;12.05;;;7.35;;
31770;SDS011;18343;50.152;8.182;2022-08-25T08:53:18;10.23;;;6.80;;
31770;SDS011;18343;50.152;8.182;2022-08-25T08:56:10;8.30;;;6.10;;
31770;SDS011;18343;50.152;8.182;2022-08-25T08:59:02;7.82;;;6.40;;
31770;SDS011;18343;50.152;8.182;2022-08-25T09:04:43;7.93;;;6.25;;
31770;SDS011;18343;50.152;8.182;2022-08-25T09:07:34;10.05;;;6.68;;
31770;SDS011;18343;50.152;8.182;2022-08-25T09:10:27;13.60;;;6.88;;
31770;SDS011;18343;50.152;8.182;2022-08-25T09:13:27;8.93;;;5.75;;
31770;SDS011;18343;50.152;8.182;2022-08-25T09:16:27;6.75;;;6.05;;
31770;SDS011;18343;50.152;8.182;2022-08-25T09:19:46;14.70;;;6.40;;
31770;SDS011;18343;50.152;8.182;2022-08-25T09:23:02;7.38;;;6.35;;
31770;SDS011;18343;50.152;8.182;2022-08-25T09:26:09;9.15;;;6.55;;
31770;SDS011;18343;50.152;8.182;2022-08-25T09:29:14;9.50;;;6.88;;
31770;SDS011;18343;50.152;8.182;2022-08-25T09:32:04;8.30;;;6.07;;
31770;SDS011;18343;50.152;8.182;2022-08-25T09:34:50;6.45;;;5.55;;
31770;SDS011;18343;50.152;8.182;2022-08-25T09:37:38;8.52;;;6.55;;
31770;SDS011;18343;50.152;8.182;2022-08-25T09:40:23;7.90;;;5.78;;
31770;SDS011;18343;50.152;8.182;2022-08-25T09:43:18;8.15;;;7.00;;
31770;SDS011;18343;50.152;8.182;2022-08-25T09:46:10;8.98;;;6.53;;
31770;SDS011;18343;50.152;8.182;2022-08-25T09:49:09;7.72;;;6.15;;
31770;SDS011;18343;50.152;8.182;2022-08-25T09:55:23;7.65;;;5.90;;
31770;SDS011;18343;50.152;8.182;2022-08-25T09:58:18;8.57;;;6.40;;
31770;SDS011;18343;50.152;8.182;2022-08-25T10:01:11;8.87;;;7.43;;
31770;SDS011;18343;50.152;8.182;2022-08-25T10:04:00;9.85;;;6.00;;
31770;SDS011;18343;50.152;8.182;2022-08-25T10:06:51;9.07;;;7.03;;
31770;SDS011;18343;50.152;8.182;2022-08-25T10:09:40;14.45;;;7.72;;
31770;SDS011;18343;50.152;8.182;2022-08-25T10:12:28;9.05;;;6.63;;
31770;SDS011;18343;50.152;8.182;2022-08-25T10:15:21;9.32;;;6.35;;
31770;SDS011;18343;50.152;8.182;2022-08-25T10:18:17;9.07;;;5.60;;
31770;SDS011;18343;50.152;8.182;2022-08-25T10:21:09;10.10;;;6.10;;
31770;SDS011;18343;50.152;8.182;2022-08-25T10:23:57;7.38;;;6.28;;
31770;SDS011;18343;50.152;8.182;2022-08-25T10:26:47;9.10;;;5.88;;
31770;SDS011;18343;50.152;8.182;2022-08-25T10:29:51;9.75;;;6.35;;
31770;SDS011;18343;50.152;8.182;2022-08-25T10:33:07;8.80;;;5.97;;
31770;SDS011;18343;50.152;8.182;2022-08-25T10:36:08;8.25;;;5.10;;
31770;SDS011;18343;50.152;8.182;2022-08-25T10:39:01;7.13;;;5.50;;
31770;SDS011;18343;50.152;8.182;2022-08-25T10:41:49;6.95;;;5.55;;
31770;SDS011;18343;50.152;8.182;2022-08-25T10:44:48;7.28;;;5.55;;
31770;SDS011;18343;50.152;8.182;2022-08-25T10:48:22;11.50;;;6.68;;
31770;SDS011;18343;50.152;8.182;2022-08-25T10:51:37;9.75;;;6.05;;
31770;SDS011;18343;50.152;8.182;2022-08-25T10:54:37;9.68;;;5.90;;
31770;SDS011;18343;50.152;8.182;2022-08-25T10:57:35;12.90;;;6.40;;
31770;SDS011;18343;50.152;8.182;2022-08-25T11:00:31;10.63;;;6.22;;
31770;SDS011;18343;50.152;8.182;2022-08-25T11:03:28;8.15;;;6.40;;
31770;SDS011;18343;50.152;8.182;2022-08-25T11:06:28;8.43;;;6.30;;
31770;SDS011;18343;50.152;8.182;2022-08-25T11:09:24;9.60;;;6.28;;
31770;SDS011;18343;50.152;8.182;2022-08-25T11:12:14;10.73;;;6.50;;
31770;SDS011;18343;50.152;8.182;2022-08-25T11:15:16;7.80;;;6.35;;
31770;SDS011;18343;50.152;8.182;2022-08-25T11:18:07;7.55;;;6.70;;
31770;SDS011;18343;50.152;8.182;2022-08-25T11:21:00;10.82;;;7.13;;
31770;SDS011;18343;50.152;8.182;2022-08-25T11:23:54;11.73;;;6.97;;
31770;SDS011;18343;50.152;8.182;2022-08-25T11:26:52;8.93;;;6.72;;
31770;SDS011;18343;50.152;8.182;2022-08-25T11:29:40;7.93;;;6.38;;
31770;SDS011;18343;50.152;8.182;2022-08-25T11:32:33;10.60;;;6.93;;
31770;SDS011;18343;50.152;8.182;2022-08-25T11:35:25;10.90;;;7.13;;
31770;SDS011;18343;50.152;8.182;2022-08-25T11:38:19;13.02;;;7.40;;
31770;SDS011;18343;50.152;8.182;2022-08-25T11:41:22;8.25;;;6.65;;
31770;SDS011;18343;50.152;8.182;2022-08-25T11:44:22;13.40;;;7.10;;
31770;SDS011;18343;50.152;8.182;2022-08-25T11:47:32;11.15;;;7.35;;
31770;SDS011;18343;50.152;8.182;2022-08-25T11:50:33;9.70;;;6.85;;
31770;SDS011;18343;50.152;8.182;2022-08-25T11:53:37;9.48;;;7.25;;
31770;SDS011;18343;50.152;8.182;2022-08-25T11:56:30;10.35;;;7.68;;
31770;SDS011;18343;50.152;8.182;2022-08-25T12:09:20;10.05;;;6.97;;
31770;SDS011;18343;50.152;8.182;2022-08-25T12:15:14;11.57;;;6.95;;
31770;SDS011;18343;50.152;8.182;2022-08-25T12:18:07;7.93;;;7.13;;
31770;SDS011;18343;50.152;8.182;2022-08-25T12:21:08;8.68;;;7.28;;
31770;SDS011;18343;50.152;8.182;2022-08-25T12:24:05;10.35;;;7.35;;
31770;SDS011;18343;50.152;8.182;2022-08-25T12:26:58;11.32;;;7.13;;
31770;SDS011;18343;50.152;8.182;2022-08-25T12:29:49;7.35;;;6.65;;
31770;SDS011;18343;50.152;8.182;2022-08-25T12:32:46;12.60;;;7.05;;
31770;SDS011;18343;50.152;8.182;2022-08-25T12:35:52;10.57;;;7.32;;
31770;SDS011;18343;50.152;8.182;2022-08-25T12:38:41;10.48;;;8.10;;
31770;SDS011;18343;50.152;8.182;2022-08-25T12:41:31;10.50;;;7.20;;
31770;SDS011;18343;50.152;8.182;2022-08-25T12:44:18;10.70;;;7.80;;
31770;SDS011;18343;50.152;8.182;2022-08-25T12:47:27;9.60;;;7.22;;
31770;SDS011;18343;50.152;8.182;2022-08-25T12:50:28;10.40;;;7.28;;
31770;SDS011;18343;50.152;8.182;2022-08-25T12:53:29;16.10;;;7.57;;
31770;SDS011;18343;50.152;8.182;2022-08-25T12:56:24;7.53;;;6.72;;
31770;SDS011;18343;50.152;8.182;2022-08-25T12:59:16;11.88;;;7.47;;
31770;SDS011;18343;50.152;8.182;2022-08-25T13:02:16;12.75;;;6.60;;
31770;SDS011;18343;50.152;8.182;2022-08-25T13:05:57;11.80;;;6.82;;
31770;SDS011;18343;50.152;8.182;2022-08-25T13:12:30;11.05;;;7.38;;
31770;SDS011;18343;50.152;8.182;2022-08-25T13:15:27;8.68;;;6.72;;
31770;SDS011;18343;50.152;8.182;2022-08-25T13:18:21;8.57;;;6.93;;
31770;SDS011;18343;50.152;8.182;2022-08-25T13:21:12;7.75;;;6.40;;
31770;SDS011;18343;50.152;8.182;2022-08-25T13:24:04;7.80;;;6.93;;
31770;SDS011;18343;50.152;8.182;2022-08-25T13:26:56;9.80;;;6.80;;
31770;SDS011;18343;50.152;8.182;2022-08-25T13:29:48;13.82;;;7.55;;
31770;SDS011;18343;50.152;8.182;2022-08-25T13:32:37;9.93;;;7.03;;
31770;SDS011;18343;50.152;8.182;2022-08-25T13:35:23;14.38;;;7.60;;
31770;SDS011;18343;50.152;8.182;2022-08-25T13:38:11;19.85;;;7.40;;
31770;SDS011;18343;50.152;8.182;2022-08-25T13:41:01;16.85;;;6.93;;
31770;SDS011;18343;50.152;8.182;2022-08-25T13:43:47;9.98;;;7.22;;
31770;SDS011;18343;50.152;8.182;2022-08-25T13:46:38;11.45;;;7.53;;
31770;SDS011;18343;50.152;8.182;2022-08-25T13:49:28;11.02;;;7.05;;
31770;SDS011;18343;50.152;8.182;2022-08-25T13:52:14;11.73;;;7.20;;
31770;SDS011;18343;50.152;8.182;2022-08-25T13:55:08;12.32;;;6.97;;
31770;SDS011;18343;50.152;8.182;2022-08-25T13:57:53;9.00;;;7.40;;
31770;SDS011;18343;50.152;8.182;2022-08-25T14:00:43;23.77;;;7.43;;
31770;SDS011;18343;50.152;8.182;2022-08-25T14:03:33;7.65;;;6.85;;
31770;SDS011;18343;50.152;8.182;2022-08-25T14:06:22;11.68;;;7.10;;
31770;SDS011;18343;50.152;8.182;2022-08-25T14:09:12;8.65;;;6.97;;
31770;SDS011;18343;50.152;8.182;2022-08-25T14:12:00;7.60;;;6.80;;
31770;SDS011;18343;50.152;8.182;2022-08-25T14:14:56;9.52;;;6.93;;
31770;SDS011;18343;50.152;8.182;2022-08-25T14:17:43;9.32;;;7.15;;
31770;SDS011;18343;50.152;8.182;2022-08-25T14:20:33;10.07;;;6.93;;
31770;SDS011;18343;50.152;8.182;2022-08-25T14:23:21;10.05;;;6.88;;
31770;SDS011;18343;50.152;8.182;2022-08-25T14:26:11;9.82;;;6.60;;
31770;SDS011;18343;50.152;8.182;2022-08-25T14:28:56;10.77;;;6.72;;
31770;SDS011;18343;50.152;8.182;2022-08-25T14:31:44;9.32;;;6.32;;
31770;SDS011;18343;50.152;8.182;2022-08-25T14:34:31;9.38;;;6.45;;
31770;SDS011;18343;50.152;8.182;2022-08-25T14:37:19;11.90;;;6.82;;
31770;SDS011;18343;50.152;8.182;2022-08-25T14:40:06;8.98;;;5.95;;
31770;SDS011;18343;50.152;8.182;2022-08-25T14:42:55;8.52;;;6.32;;
31770;SDS011;18343;50.152;8.182;2022-08-25T14:45:42;7.63;;;6.68;;
31770;SDS011;18343;50.152;8.182;2022-08-25T14:48:33;12.63;;;6.72;;
31770;SDS011;18343;50.152;8.182;2022-08-25T14:51:28;7.53;;;6.30;;
31770;SDS011;18343;50.152;8.182;2022-08-25T14:54:16;11.07;;;5.97;;
31770;SDS011;18343;50.152;8.182;2022-08-25T14:57:05;8.20;;;6.50;;
31770;SDS011;18343;50.152;8.182;2022-08-25T14:59:50;8.15;;;6.47;;
31770;SDS011;18343;50.152;8.182;2022-08-25T15:02:36;7.32;;;6.00;;
31770;SDS011;18343;50.152;8.182;2022-08-25T15:05:27;7.57;;;6.25;;
31770;SDS011;18343;50.152;8.182;2022-08-25T15:08:13;6.97;;;5.80;;
31770;SDS011;18343;50.152;8.182;2022-08-25T15:11:17;9.05;;;5.55;;
31770;SDS011;18343;50.152;8.182;2022-08-25T15:14:03;9.15;;;5.63;;
31770;SDS011;18343;50.152;8.182;2022-08-25T15:16:50;9.18;;;5.95;;
31770;SDS011;18343;50.152;8.182;2022-08-25T15:19:38;9.93;;;5.43;;
31770;SDS011;18343;50.152;8.182;2022-08-25T15:22:25;6.38;;;5.53;;
31770;SDS011;18343;50.152;8.182;2022-08-25T15:25:11;8.85;;;6.10;;
31770;SDS011;18343;50.152;8.182;2022-08-25T15:27:59;8.63;;;5.72;;
31770;SDS011;18343;50.152;8.182;2022-08-25T15:44:07;5.80;;;4.78;;
31770;SDS011;18343;50.152;8.182;2022-08-25T15:46:55;6.68;;;5.35;;
31770;SDS011;18343;50.152;8.182;2022-08-25T15:49:41;6.72;;;5.45;;
31770;SDS011;18343;50.152;8.182;2022-08-25T15:52:26;8.98;;;5.32;;
31770;SDS011;18343;50.152;8.182;2022-08-25T15:55:12;5.18;;;4.68;;
31770;SDS011;18343;50.152;8.182;2022-08-25T15:58:00;6.72;;;4.80;;
31770;SDS011;18343;50.152;8.182;2022-08-25T16:00:48;8.35;;;5.38;;
31770;SDS011;18343;50.152;8.182;2022-08-25T16:03:34;6.25;;;5.35;;
31770;SDS011;18343;50.152;8.182;2022-08-25T16:06:20;5.93;;;5.25;;
31770;SDS011;18343;50.152;8.182;2022-08-25T16:09:11;8.60;;;5.28;;
31770;SDS011;18343;50.152;8.182;2022-08-25T16:11:56;6.40;;;4.82;;
31770;SDS011;18343;50.152;8.182;2022-08-25T16:14:42;6.53;;;5.25;;
31770;SDS011;18343;50.152;8.182;2022-08-25T16:17:32;7.60;;;5.25;;
31770;SDS011;18343;50.152;8.182;2022-08-25T16:20:17;5.40;;;4.72;;
31770;SDS011;18343;50.152;8.182;2022-08-25T16:23:03;9.30;;;5.00;;
31770;SDS011;18343;50.152;8.182;2022-08-25T16:25:49;6.00;;;5.20;;
31770;SDS011;18343;50.152;8.182;2022-08-25T16:28:35;8.05;;;4.80;;
31770;SDS011;18343;50.152;8.182;2022-08-25T16:31:22;8.18;;;4.78;;
31770;SDS011;18343;50.152;8.182;2022-08-25T16:34:09;9.23;;;5.07;;
31770;SDS011;18343;50.152;8.182;2022-08-25T16:36:55;8.00;;;4.50;;
31770;SDS011;18343;50.152;8.182;2022-08-25T16:43:16;5.63;;;4.30;;
31770;SDS011;18343;50.152;8.182;2022-08-25T16:46:02;5.15;;;4.28;;
31770;SDS011;18343;50.152;8.182;2022-08-25T16:48:51;6.00;;;4.45;;
31770;SDS011;18343;50.152;8.182;2022-08-25T16:51:40;7.13;;;4.78;;
31770;SDS011;18343;50.152;8.182;2022-08-25T16:54:26;5.40;;;4.53;;
31770;SDS011;18343;50.152;8.182;2022-08-25T16:57:30;9.38;;;4.88;;
31770;SDS011;18343;50.152;8.182;2022-08-25T17:00:16;5.13;;;4.32;;
31770;SDS011;18343;50.152;8.182;2022-08-25T17:02:53;5.35;;;4.63;;
31770;SDS011;18343;50.152;8.182;2022-08-25T17:05:23;7.82;;;4.75;;
31770;SDS011;18343;50.152;8.182;2022-08-25T17:07:51;5.00;;;4.30;;
31770;SDS011;18343;50.152;8.182;2022-08-25T17:10:36;6.50;;;4.93;;
31770;SDS011;18343;50.152;8.182;2022-08-25T17:13:05;6.18;;;4.78;;
31770;SDS011;18343;50.152;8.182;2022-08-25T17:15:32;5.82;;;4.75;;
31770;SDS011;18343;50.152;8.182;2022-08-25T17:18:03;4.70;;;4.20;;
31770;SDS011;18343;50.152;8.182;2022-08-25T17:20:30;5.28;;;4.63;;
31770;SDS011;18343;50.152;8.182;2022-08-25T17:22:57;5.22;;;4.55;;
31770;SDS011;18343;50.152;8.182;2022-08-25T17:25:24;9.57;;;5.72;;
31770;SDS011;18343;50.152;8.182;2022-08-25T17:27:50;6.60;;;4.78;;
31770;SDS011;18343;50.152;8.182;2022-08-25T17:30:17;7.40;;;5.32;;
31770;SDS011;18343;50.152;8.182;2022-08-25T17:32:44;6.50;;;5.03;;
31770;SDS011;18343;50.152;8.182;2022-08-25T17:35:10;6.80;;;5.10;;